Time;durP1;ratioP1;P1;durP2;ratioP2;P2;SDS_P1;SDS_P2;PMS_P1;PMS_P2;Temp;Humidity;BMP_temperature;BMP_pressure;BME280_temperature;BME280_humidity;BME280_pressure;Samples;Min_cycle;Max_cycle;Signal;HPM_P1;HPM_P2
2022/11/07 00:02:23;;;;;;;4.88;1.77;;;11.10;99.90;;;;;;4995902;28;20027;-68
2022/11/07 00:04:48;;;;;;;3.63;2.00;;;11.20;99.90;;;;;;4995819;28;20105;-68
2022/11/07 00:07:14;;;;;;;2.22;1.60;;;11.20;99.90;;;;;;4994636;28;20121;-67
2022/11/07 00:09:39;;;;;;;2.95;1.60;;;11.30;99.90;;;;;;5010530;28;20026;-67
2022/11/07 00:12:05;;;;;;;2.40;1.95;;;11.30;99.90;;;;;;4994034;28;20030;-67
2022/11/07 00:14:31;;;;;;;3.67;1.63;;;11.20;99.90;;;;;;4995748;28;20026;-67
2022/11/07 00:16:56;;;;;;;2.55;1.80;;;11.20;99.90;;;;;;4975313;28;20055;-67
2022/11/07 00:19:22;;;;;;;2.90;1.58;;;11.20;99.90;;;;;;4975702;28;20048;-67
2022/11/07 00:21:48;;;;;;;3.20;1.60;;;11.20;99.90;;;;;;4974614;28;20037;-67
2022/11/07 00:24:18;;;;;;;2.95;1.67;;;11.30;99.90;;;;;;4972814;28;20034;-67
2022/11/07 00:26:45;;;;;;;4.68;1.42;;;11.20;99.90;;;;;;4973509;28;20031;-67
2022/11/07 00:29:13;;;;;;;3.97;1.52;;;11.20;99.90;;;;;;4974300;28;20505;-67
2022/11/07 00:31:38;;;;;;;2.00;1.42;;;11.20;99.90;;;;;;4959390;28;20027;-67
2022/11/07 00:34:04;;;;;;;2.55;1.70;;;11.20;99.90;;;;;;4964598;28;20078;-67
2022/11/07 00:36:29;;;;;;;2.75;1.60;;;11.20;99.90;;;;;;4955593;28;20019;-67
2022/11/07 00:38:55;;;;;;;2.38;1.88;;;11.20;99.90;;;;;;4955654;28;20024;-67
2022/11/07 00:41:22;;;;;;;2.88;1.67;;;11.20;99.90;;;;;;4974183;28;20398;-67
2022/11/07 00:43:47;;;;;;;4.55;1.70;;;11.20;99.90;;;;;;4974621;28;20030;-67
2022/11/07 00:46:15;;;;;;;2.17;1.20;;;11.30;99.90;;;;;;4976434;28;20077;-67
2022/11/07 00:48:40;;;;;;;6.80;1.60;;;11.30;99.90;;;;;;4971982;28;20031;-67
2022/11/07 00:51:14;;;;;;;3.97;1.25;;;11.30;99.90;;;;;;4958214;28;20033;-67
2022/11/07 00:53:40;;;;;;;4.75;1.85;;;11.30;99.90;;;;;;4958992;29;20043;-67
2022/11/07 00:56:08;;;;;;;3.03;1.50;;;11.30;99.90;;;;;;4956922;29;20031;-67
2022/11/07 00:58:34;;;;;;;3.65;1.40;;;11.30;99.90;;;;;;4954650;29;20023;-67
2022/11/07 01:01:11;;;;;;;2.65;1.42;;;11.20;99.90;;;;;;4955776;28;20081;-67
2022/11/07 01:06:21;;;;;;;1.98;1.50;;;11.30;99.90;;;;;;4962212;28;20038;-67
2022/11/07 01:08:47;;;;;;;3.03;1.27;;;11.30;99.90;;;;;;4975038;28;20027;-67
2022/11/07 01:11:12;;;;;;;3.63;1.83;;;11.30;99.90;;;;;;4973689;28;20050;-67
2022/11/07 01:13:38;;;;;;;3.17;1.63;;;11.20;99.90;;;;;;4974986;28;20066;-67
2022/11/07 01:16:04;;;;;;;5.75;1.58;;;11.20;99.90;;;;;;4973768;28;20023;-67
2022/11/07 01:18:30;;;;;;;4.05;1.77;;;11.20;99.90;;;;;;4974683;28;20031;-67
2022/11/07 01:20:55;;;;;;;2.95;1.95;;;11.10;99.90;;;;;;4974841;28;20049;-67
2022/11/07 01:23:21;;;;;;;3.75;1.70;;;11.10;99.90;;;;;;4974776;28;20034;-67
2022/11/07 01:25:47;;;;;;;3.22;1.90;;;11.10;99.90;;;;;;4974794;28;20027;-67
2022/11/07 01:28:13;;;;;;;4.25;1.95;;;11.10;99.90;;;;;;4974786;28;20030;-67
2022/11/07 01:30:40;;;;;;;4.38;2.03;;;11.00;99.90;;;;;;4973678;28;20026;-67
2022/11/07 01:33:06;;;;;;;4.45;2.40;;;10.90;99.90;;;;;;4973398;28;20113;-67
2022/11/07 01:35:32;;;;;;;6.88;2.05;;;10.90;99.90;;;;;;4973524;28;20106;-67
2022/11/07 01:37:58;;;;;;;3.80;2.28;;;10.80;99.90;;;;;;4973727;28;20154;-67
2022/11/07 01:40:24;;;;;;;3.60;2.20;;;10.70;99.90;;;;;;4974313;28;20046;-67
2022/11/07 01:42:49;;;;;;;3.85;1.88;;;10.70;99.90;;;;;;4973384;28;20023;-67
2022/11/07 01:45:21;;;;;;;4.25;2.20;;;10.70;99.90;;;;;;4973706;28;20117;-67
2022/11/07 01:47:48;;;;;;;3.88;2.03;;;10.70;99.90;;;;;;4973205;28;20034;-67
2022/11/07 01:50:13;;;;;;;9.68;2.28;;;10.70;99.90;;;;;;4973075;28;20023;-67
2022/11/07 01:52:42;;;;;;;5.40;2.33;;;10.70;99.90;;;;;;4973178;28;20027;-67
2022/11/07 01:55:29;;;;;;;4.00;2.00;;;10.60;99.90;;;;;;4973190;28;20070;-67
2022/11/07 01:58:43;;;;;;;3.22;1.90;;;10.50;99.90;;;;;;4973232;28;20023;-67
2022/11/07 02:01:08;;;;;;;3.45;1.85;;;10.40;99.90;;;;;;4973493;28;20027;-67
2022/11/07 02:03:34;;;;;;;4.43;2.17;;;10.50;99.90;;;;;;4973154;28;20165;-67
2022/11/07 02:06:08;;;;;;;3.45;1.77;;;10.70;99.90;;;;;;4973157;28;20030;-67
2022/11/07 02:08:37;;;;;;;4.35;1.75;;;10.70;99.90;;;;;;4974502;28;20035;-67
2022/11/07 02:11:04;;;;;;;4.57;2.13;;;10.70;99.90;;;;;;4973812;28;20030;-67
2022/11/07 02:13:31;;;;;;;2.80;1.70;;;10.70;99.90;;;;;;4973063;28;20022;-67
2022/11/07 02:16:03;;;;;;;3.25;1.80;;;10.70;99.90;;;;;;4974147;28;20023;-67
2022/11/07 02:18:30;;;;;;;2.72;1.80;;;10.70;99.90;;;;;;4974337;28;20098;-67
2022/11/07 02:21:08;;;;;;;5.43;1.77;;;10.70;99.90;;;;;;4973115;28;20045;-67
2022/11/07 02:23:48;;;;;;;2.30;1.50;;;10.80;99.90;;;;;;4974228;28;20056;-67
2022/11/07 02:26:14;;;;;;;3.70;1.98;;;10.90;99.90;;;;;;4973008;28;20031;-67
2022/11/07 02:28:41;;;;;;;3.47;2.15;;;10.80;99.90;;;;;;4974558;28;20073;-67
2022/11/07 02:31:06;;;;;;;3.38;2.10;;;10.80;99.90;;;;;;4972727;28;20042;-67
2022/11/07 02:33:32;;;;;;;5.68;2.20;;;10.70;99.90;;;;;;4973955;28;20023;-67
2022/11/07 02:35:59;;;;;;;6.40;1.90;;;10.50;99.90;;;;;;4974218;28;20027;-67
2022/11/07 02:38:31;;;;;;;4.03;2.47;;;10.50;99.90;;;;;;4972820;28;20026;-67
2022/11/07 02:41:02;;;;;;;9.50;2.53;;;10.30;99.90;;;;;;4972832;28;20556;-67
2022/11/07 02:43:30;;;;;;;4.30;2.58;;;10.40;99.90;;;;;;4974283;28;20030;-67
2022/11/07 02:45:59;;;;;;;5.60;2.38;;;10.40;99.90;;;;;;4974097;28;20038;-67
2022/11/07 02:48:39;;;;;;;3.58;2.45;;;10.20;99.90;;;;;;4972812;28;20027;-67
2022/11/07 02:51:04;;;;;;;6.78;2.97;;;10.30;99.90;;;;;;4975733;28;20027;-67
2022/11/07 02:53:30;;;;;;;7.15;2.15;;;10.30;99.90;;;;;;4977017;28;20115;-67
2022/11/07 02:55:55;;;;;;;8.40;2.42;;;10.40;99.90;;;;;;4976216;28;20030;-67
2022/11/07 02:58:21;;;;;;;2.58;2.22;;;10.40;99.90;;;;;;4976194;28;20026;-67
2022/11/07 03:00:46;;;;;;;5.25;2.30;;;10.40;99.90;;;;;;4976338;28;20034;-67
2022/11/07 03:03:13;;;;;;;4.53;2.45;;;10.30;99.90;;;;;;4977313;28;20042;-67
2022/11/07 03:05:38;;;;;;;7.70;2.83;;;10.50;99.90;;;;;;4976416;28;20054;-67
2022/11/07 03:08:04;;;;;;;4.68;2.53;;;10.40;99.90;;;;;;4976210;28;20018;-67
2022/11/07 03:10:29;;;;;;;3.75;2.80;;;10.20;99.90;;;;;;4975748;28;20165;-67
2022/11/07 03:12:55;;;;;;;10.50;2.70;;;10.30;99.90;;;;;;4977681;28;20355;-67
2022/11/07 03:15:20;;;;;;;5.00;2.47;;;10.40;99.90;;;;;;4975784;28;20070;-67
2022/11/07 03:17:46;;;;;;;9.38;2.78;;;10.50;99.90;;;;;;4976984;28;20109;-67
2022/11/07 03:20:11;;;;;;;6.30;3.47;;;10.60;99.90;;;;;;4975582;28;20045;-67
2022/11/07 03:22:37;;;;;;;5.75;2.78;;;10.50;99.90;;;;;;4976907;28;20050;-67
2022/11/07 03:25:04;;;;;;;9.70;3.38;;;10.70;99.90;;;;;;4975709;28;20054;-67
2022/11/07 03:27:29;;;;;;;4.15;2.63;;;10.50;99.90;;;;;;4976751;28;20031;-67
2022/11/07 03:29:55;;;;;;;7.60;3.67;;;10.40;99.90;;;;;;4975830;28;20033;-67
2022/11/07 03:32:33;;;;;;;5.95;2.67;;;10.40;99.90;;;;;;4976731;28;20112;-67
2022/11/07 03:34:59;;;;;;;7.60;3.40;;;10.30;99.90;;;;;;4976913;28;20019;-67
2022/11/07 03:37:24;;;;;;;8.18;2.78;;;10.30;99.90;;;;;;4975648;28;20120;-67
2022/11/07 03:39:50;;;;;;;8.93;3.90;;;10.50;99.90;;;;;;4991861;28;20073;-67
2022/11/07 03:42:15;;;;;;;7.65;3.42;;;10.50;99.90;;;;;;4975404;28;20041;-67
2022/11/07 03:44:41;;;;;;;8.50;3.75;;;10.40;99.90;;;;;;4975661;28;20019;-67
2022/11/07 03:47:06;;;;;;;8.55;3.28;;;10.40;99.90;;;;;;4975274;28;20034;-67
2022/11/07 03:49:32;;;;;;;7.80;3.97;;;10.30;99.90;;;;;;4976852;28;20027;-67
2022/11/07 03:51:57;;;;;;;9.77;4.10;;;10.30;99.90;;;;;;4975398;28;20120;-67
2022/11/07 03:54:23;;;;;;;4.20;3.15;;;10.20;99.90;;;;;;4976643;28;20034;-67
2022/11/07 03:56:48;;;;;;;5.43;3.10;;;10.10;99.90;;;;;;4976342;28;20035;-67
2022/11/07 03:59:14;;;;;;;6.45;3.22;;;10.30;99.90;;;;;;4976137;28;20027;-67
2022/11/07 04:01:39;;;;;;;7.05;3.35;;;10.30;99.90;;;;;;4976238;28;20098;-67
2022/11/07 04:04:05;;;;;;;7.03;2.88;;;10.50;99.90;;;;;;4976154;28;20177;-67
2022/11/07 04:06:30;;;;;;;10.00;3.55;;;10.40;99.90;;;;;;4976426;28;20027;-67
2022/11/07 04:08:56;;;;;;;6.72;3.22;;;10.60;99.90;;;;;;4976385;28;20031;-67
2022/11/07 04:19:34;;;;;;;9.40;3.70;;;10.50;99.90;;;;;;4975982;28;20038;-67
2022/11/07 04:22:00;;;;;;;5.45;2.80;;;10.40;99.90;;;;;;4975135;28;20027;-67
2022/11/07 04:24:25;;;;;;;15.10;4.03;;;10.40;99.90;;;;;;4975815;28;20033;-67
2022/11/07 04:29:35;;;;;;;4.60;3.13;;;10.40;99.90;;;;;;4975891;28;20166;-67
2022/11/07 04:32:00;;;;;;;5.72;2.80;;;10.50;99.90;;;;;;4975642;28;20105;-67
2022/11/07 04:34:26;;;;;;;5.88;2.90;;;10.40;99.90;;;;;;4990621;28;20474;-67
2022/11/07 04:36:51;;;;;;;4.47;2.72;;;10.60;99.90;;;;;;4990585;28;20037;-67
2022/11/07 04:39:17;;;;;;;7.38;2.92;;;10.70;99.90;;;;;;4974325;28;20030;-67
2022/11/07 04:41:42;;;;;;;4.65;2.38;;;10.70;99.90;;;;;;4991284;28;20046;-67
2022/11/07 04:44:07;;;;;;;3.92;2.80;;;10.70;99.90;;;;;;4975581;28;20110;-67
2022/11/07 04:46:33;;;;;;;4.95;2.80;;;10.70;99.90;;;;;;4974657;28;20029;-67
2022/11/07 04:48:58;;;;;;;8.40;2.83;;;10.70;99.90;;;;;;4991560;28;20035;-67
2022/11/07 04:51:24;;;;;;;12.30;3.22;;;10.70;99.90;;;;;;4974611;28;20390;-67
2022/11/07 04:53:50;;;;;;;5.32;2.95;;;10.50;99.90;;;;;;4976268;28;20163;-67
2022/11/07 04:56:15;;;;;;;5.55;3.17;;;10.50;99.90;;;;;;4975401;28;20118;-67
2022/11/07 04:58:41;;;;;;;8.85;3.30;;;10.40;99.90;;;;;;4976289;28;20029;-67
2022/11/07 05:01:06;;;;;;;6.70;2.65;;;10.50;99.90;;;;;;4991713;28;20023;-67
2022/11/07 05:03:32;;;;;;;6.10;3.53;;;10.50;99.90;;;;;;4975222;28;20031;-67
2022/11/07 05:05:58;;;;;;;5.60;2.88;;;10.60;99.90;;;;;;4973924;28;20031;-67
2022/11/07 05:08:23;;;;;;;4.88;3.10;;;10.50;99.90;;;;;;4974995;28;20113;-67
2022/11/07 05:10:49;;;;;;;9.85;3.75;;;10.60;99.90;;;;;;4974911;28;20022;-67
2022/11/07 05:13:14;;;;;;;7.00;3.15;;;10.70;99.90;;;;;;4974844;28;20434;-67
2022/11/07 05:15:40;;;;;;;8.60;3.30;;;10.60;99.90;;;;;;4975079;28;20450;-67
2022/11/07 05:18:05;;;;;;;6.53;3.10;;;10.60;99.90;;;;;;4974920;28;20037;-67
2022/11/07 05:20:34;;;;;;;6.13;3.45;;;10.70;99.90;;;;;;4990371;28;20121;-67
2022/11/07 05:23:38;;;;;;;8.70;3.53;;;10.80;99.90;;;;;;4989835;28;20089;-66
2022/11/07 05:26:04;;;;;;;9.70;3.42;;;11.00;99.90;;;;;;4989925;28;20066;-66
2022/11/07 05:28:31;;;;;;;7.30;3.53;;;11.00;99.90;;;;;;4973597;28;20066;-66
2022/11/07 05:31:04;;;;;;;7.95;3.70;;;11.00;99.90;;;;;;4989581;28;20057;-66
2022/11/07 05:33:30;;;;;;;8.05;3.15;;;10.90;99.90;;;;;;4974695;28;20081;-66
2022/11/07 05:35:56;;;;;;;9.13;3.63;;;10.70;99.90;;;;;;4973794;28;20027;-66
2022/11/07 05:38:21;;;;;;;9.00;3.67;;;10.70;99.90;;;;;;4974625;28;20026;-66
2022/11/07 05:40:47;;;;;;;9.75;3.63;;;10.80;99.90;;;;;;4973338;28;20027;-66
2022/11/07 05:43:14;;;;;;;10.88;3.35;;;10.70;99.90;;;;;;4989563;28;20033;-66
2022/11/07 05:45:40;;;;;;;8.77;3.28;;;10.70;99.90;;;;;;4974545;28;20105;-66
2022/11/07 05:48:12;;;;;;;11.93;3.72;;;10.60;99.90;;;;;;4973587;28;20023;-66
2022/11/07 05:50:38;;;;;;;10.48;3.53;;;10.60;99.90;;;;;;4989373;28;20026;-66
2022/11/07 05:53:04;;;;;;;13.80;4.03;;;10.60;99.90;;;;;;4974474;28;20019;-66
2022/11/07 05:55:30;;;;;;;9.07;3.28;;;10.70;99.90;;;;;;4973287;28;20023;-66
2022/11/07 05:57:56;;;;;;;10.60;4.43;;;10.80;99.90;;;;;;4990191;28;20023;-66
2022/11/07 06:00:22;;;;;;;6.78;3.45;;;10.80;99.90;;;;;;4989645;28;20026;-66
2022/11/07 06:02:55;;;;;;;11.52;3.97;;;10.80;99.90;;;;;;4974505;28;20053;-66
2022/11/07 06:05:21;;;;;;;7.15;3.63;;;10.80;99.90;;;;;;4973062;28;20034;-67
2022/11/07 06:07:46;;;;;;;9.98;3.83;;;10.80;99.90;;;;;;4974232;28;20027;-66
2022/11/07 06:10:12;;;;;;;7.53;3.10;;;11.00;99.90;;;;;;4973002;28;20040;-66
2022/11/07 06:12:37;;;;;;;9.27;2.83;;;11.10;99.90;;;;;;4974669;28;20491;-66
2022/11/07 06:15:03;;;;;;;7.15;3.30;;;10.90;99.90;;;;;;4989309;28;20030;-66
2022/11/07 06:17:28;;;;;;;6.55;3.13;;;10.80;99.90;;;;;;4989521;28;20027;-66
2022/11/07 06:19:54;;;;;;;7.13;3.10;;;10.80;99.90;;;;;;4973257;28;20045;-66
2022/11/07 06:22:19;;;;;;;5.97;2.88;;;11.00;99.90;;;;;;4972982;28;20042;-66
2022/11/07 06:24:45;;;;;;;9.75;3.00;;;11.00;99.90;;;;;;4973192;28;20026;-66
2022/11/07 06:27:11;;;;;;;10.85;3.15;;;11.10;99.90;;;;;;4992884;28;20062;-66
2022/11/07 06:29:36;;;;;;;7.25;2.78;;;11.20;99.90;;;;;;4976660;28;20059;-66
2022/11/07 06:32:02;;;;;;;6.57;2.67;;;11.10;99.90;;;;;;4992849;28;20070;-66
2022/11/07 06:34:27;;;;;;;10.77;3.13;;;11.10;99.90;;;;;;4993132;28;20019;-66
2022/11/07 06:36:54;;;;;;;6.43;2.50;;;11.00;99.90;;;;;;4976920;28;20023;-66
2022/11/07 06:39:20;;;;;;;5.20;2.75;;;11.10;99.90;;;;;;4976458;28;20023;-66
2022/11/07 06:41:47;;;;;;;5.53;3.03;;;11.10;99.90;;;;;;4978298;28;20035;-66
2022/11/07 06:44:13;;;;;;;9.57;2.58;;;11.10;99.90;;;;;;4977651;28;20037;-66
2022/11/07 06:46:39;;;;;;;8.63;2.95;;;11.00;99.90;;;;;;4976341;28;20023;-66
2022/11/07 06:49:04;;;;;;;9.95;2.63;;;11.10;99.90;;;;;;4977684;28;20034;-66
2022/11/07 06:51:30;;;;;;;6.47;2.80;;;11.20;99.90;;;;;;4976160;28;20027;-66
2022/11/07 06:53:56;;;;;;;8.73;2.65;;;11.30;99.90;;;;;;4977431;28;20022;-66
2022/11/07 06:56:22;;;;;;;2.88;2.25;;;11.40;99.90;;;;;;4978055;28;20023;-66
2022/11/07 06:58:48;;;;;;;9.98;3.00;;;11.40;99.90;;;;;;4977307;28;20033;-66
2022/11/07 07:01:13;;;;;;;9.55;2.80;;;11.40;99.90;;;;;;4976167;28;20081;-66
2022/11/07 07:03:40;;;;;;;4.50;2.40;;;11.40;99.90;;;;;;4992568;28;20031;-66
2022/11/07 07:06:10;;;;;;;6.13;2.70;;;11.40;99.90;;;;;;4976343;28;20031;-66
2022/11/07 07:08:36;;;;;;;11.02;3.20;;;11.50;99.90;;;;;;4976352;28;20065;-66
2022/11/07 07:11:04;;;;;;;5.85;2.85;;;11.50;99.90;;;;;;4975833;28;20062;-66
2022/11/07 07:13:29;;;;;;;5.03;2.63;;;11.50;99.90;;;;;;4976321;28;20026;-66
2022/11/07 07:15:56;;;;;;;6.75;2.85;;;11.60;99.90;;;;;;4976748;28;20023;-66
2022/11/07 07:18:23;;;;;;;7.93;2.60;;;11.60;99.90;;;;;;4975762;28;20475;-66
2022/11/07 07:20:49;;;;;;;14.10;3.00;;;11.50;99.90;;;;;;4975948;28;20042;-66
2022/11/07 07:23:16;;;;;;;5.03;2.45;;;11.60;99.90;;;;;;4976943;28;20026;-66
2022/11/07 07:25:42;;;;;;;5.93;2.38;;;11.50;99.90;;;;;;4976009;28;20054;-67
2022/11/07 07:28:07;;;;;;;8.23;2.60;;;11.60;99.90;;;;;;4977010;28;20031;-66
2022/11/07 07:30:33;;;;;;;6.35;2.35;;;11.60;99.90;;;;;;4975480;28;20062;-66
2022/11/07 07:32:58;;;;;;;6.22;2.50;;;11.70;99.90;;;;;;4991682;28;20084;-66
2022/11/07 07:35:24;;;;;;;4.90;2.30;;;11.60;99.90;;;;;;4976741;28;20101;-66
2022/11/07 07:37:50;;;;;;;8.68;2.30;;;11.70;99.90;;;;;;4976364;28;20106;-66
2022/11/07 07:40:17;;;;;;;7.80;2.97;;;11.60;99.90;;;;;;4992461;28;20050;-66
2022/11/07 07:42:42;;;;;;;8.95;2.92;;;11.70;99.90;;;;;;4977187;28;20082;-66
2022/11/07 07:45:10;;;;;;;7.85;2.10;;;11.80;99.90;;;;;;4991496;28;20026;-66
2022/11/07 07:47:36;;;;;;;7.85;2.53;;;11.80;99.90;;;;;;4976537;28;20022;-66
2022/11/07 07:50:03;;;;;;;6.45;2.13;;;11.90;99.90;;;;;;4976588;28;20463;-66
2022/11/07 07:52:28;;;;;;;6.20;2.35;;;11.90;99.90;;;;;;4975494;28;20022;-66
2022/11/07 07:54:54;;;;;;;5.00;2.15;;;11.90;99.90;;;;;;4991351;28;20026;-66
2022/11/07 07:57:20;;;;;;;5.30;2.13;;;11.90;99.90;;;;;;4976323;28;20042;-67
2022/11/07 07:59:46;;;;;;;7.82;2.38;;;12.00;99.90;;;;;;4975060;28;20023;-66
2022/11/07 08:02:11;;;;;;;3.70;1.80;;;12.00;99.90;;;;;;4974950;28;20045;-66
2022/11/07 08:04:37;;;;;;;6.15;2.22;;;12.10;99.90;;;;;;4974973;28;20035;-66
2022/11/07 08:07:03;;;;;;;6.65;2.50;;;12.20;99.90;;;;;;4991419;28;20073;-66
2022/11/07 08:09:35;;;;;;;5.20;1.73;;;12.10;99.90;;;;;;4976644;28;20031;-66
2022/11/07 08:12:01;;;;;;;3.75;2.50;;;12.30;99.90;;;;;;4976664;28;20062;-66
2022/11/07 08:14:27;;;;;;;5.70;2.08;;;12.20;99.90;;;;;;4975978;28;20027;-66
2022/11/07 08:16:52;;;;;;;6.40;2.15;;;12.20;99.90;;;;;;4974773;28;20093;-66
2022/11/07 08:19:18;;;;;;;3.95;2.15;;;12.20;99.90;;;;;;4974709;28;20027;-66
2022/11/07 08:21:43;;;;;;;9.93;2.15;;;12.20;99.90;;;;;;4975918;28;20026;-66
2022/11/07 08:24:09;;;;;;;3.47;1.95;;;12.20;99.90;;;;;;4974561;28;20034;-66
2022/11/07 08:26:36;;;;;;;8.95;2.22;;;12.30;99.90;;;;;;4975813;28;20031;-66
2022/11/07 08:29:02;;;;;;;9.13;2.53;;;12.30;99.90;;;;;;4975368;28;20022;-66
2022/11/07 08:31:28;;;;;;;3.35;2.13;;;12.30;99.90;;;;;;4974373;28;20062;-66
2022/11/07 08:33:57;;;;;;;11.93;1.92;;;12.30;99.90;;;;;;4974502;28;20105;-66
2022/11/07 08:36:23;;;;;;;6.20;2.03;;;12.40;99.90;;;;;;4975966;28;20101;-66
2022/11/07 08:38:48;;;;;;;9.13;2.28;;;12.40;99.90;;;;;;4975866;28;20059;-66
2022/11/07 08:41:14;;;;;;;8.77;2.13;;;12.40;99.90;;;;;;4974280;28;20038;-66
2022/11/07 08:43:39;;;;;;;5.32;2.30;;;12.50;99.90;;;;;;4974554;28;20093;-67
2022/11/07 08:46:05;;;;;;;5.25;2.10;;;12.40;99.90;;;;;;4974647;28;20055;-67
2022/11/07 08:48:31;;;;;;;5.53;2.15;;;12.40;99.90;;;;;;4974307;28;20077;-66
2022/11/07 08:50:57;;;;;;;10.35;2.22;;;12.40;99.90;;;;;;4975222;28;20070;-66
2022/11/07 08:53:24;;;;;;;7.55;1.83;;;12.50;99.90;;;;;;4975156;28;20046;-67
2022/11/07 08:55:50;;;;;;;4.60;1.98;;;12.50;99.90;;;;;;4957271;28;20094;-67
2022/11/07 08:58:16;;;;;;;8.18;2.10;;;12.60;99.90;;;;;;4973944;28;20058;-66
2022/11/07 09:00:41;;;;;;;3.13;1.55;;;12.50;99.90;;;;;;4975792;28;20151;-66
2022/11/07 09:03:07;;;;;;;4.22;1.40;;;12.50;99.90;;;;;;4975105;28;20035;-67
2022/11/07 09:05:34;;;;;;;8.57;2.00;;;12.50;99.90;;;;;;4973897;28;20026;-67
2022/11/07 09:08:00;;;;;;;8.25;1.83;;;12.50;99.90;;;;;;4973493;28;20050;-66
2022/11/07 09:10:25;;;;;;;9.90;3.00;;;12.70;99.90;;;;;;4973692;28;20398;-67
2022/11/07 09:12:51;;;;;;;7.18;1.80;;;12.70;99.90;;;;;;4964638;28;20023;-66
2022/11/07 09:15:18;;;;;;;6.15;1.73;;;12.70;99.90;;;;;;4962091;28;20027;-66
2022/11/07 09:17:45;;;;;;;4.00;1.77;;;12.80;99.90;;;;;;4962235;28;20042;-66
2022/11/07 09:20:12;;;;;;;9.85;2.22;;;12.80;99.90;;;;;;4969191;28;20045;-67
2022/11/07 09:22:38;;;;;;;6.00;1.65;;;12.80;99.90;;;;;;4962959;28;20081;-67
2022/11/07 09:25:04;;;;;;;4.07;1.70;;;12.80;99.90;;;;;;4958957;28;20023;-66
2022/11/07 09:27:30;;;;;;;11.38;1.80;;;12.90;99.90;;;;;;4973654;28;20023;-66
2022/11/07 09:29:55;;;;;;;4.63;1.63;;;12.90;99.90;;;;;;4974370;28;20147;-66
2022/11/07 09:32:21;;;;;;;11.20;1.73;;;13.00;99.90;;;;;;4974965;28;20077;-66
2022/11/07 09:34:46;;;;;;;5.38;1.70;;;12.90;99.90;;;;;;4973513;28;20047;-66
2022/11/07 09:37:12;;;;;;;6.72;1.63;;;13.00;99.90;;;;;;4973365;28;20031;-66
2022/11/07 09:39:37;;;;;;;8.73;2.38;;;13.10;99.90;;;;;;4973731;28;20037;-67
2022/11/07 09:42:18;;;;;;;3.83;1.48;;;13.00;99.90;;;;;;4974409;28;20030;-67
2022/11/07 09:44:50;;;;;;;6.22;1.42;;;13.10;99.90;;;;;;4973450;28;20031;-67
2022/11/07 09:47:22;;;;;;;6.60;1.20;;;13.20;99.90;;;;;;4970387;28;20063;-67
2022/11/07 09:50:14;;;;;;;5.57;1.40;;;13.30;99.90;;;;;;4957315;28;20039;-67
2022/11/07 09:52:50;;;;;;;4.35;1.20;;;13.40;99.90;;;;;;4964806;28;20027;-67
2022/11/07 09:55:37;;;;;;;4.13;1.10;;;13.40;99.90;;;;;;4973979;28;20027;-67
2022/11/07 09:58:10;;;;;;;7.65;1.25;;;13.40;99.90;;;;;;4974475;28;20033;-67
2022/11/07 10:00:35;;;;;;;6.03;1.23;;;13.40;99.90;;;;;;4976159;28;20043;-67
2022/11/07 10:03:02;;;;;;;5.20;1.40;;;13.50;99.90;;;;;;4978673;28;20031;-67
2022/11/07 10:05:52;;;;;;;4.40;1.10;;;13.50;99.90;;;;;;4977237;28;20042;-67
2022/11/07 10:08:36;;;;;;;9.57;1.38;;;13.50;99.90;;;;;;4973900;28;20109;-67
2022/11/07 10:11:28;;;;;;;6.57;1.17;;;13.50;99.90;;;;;;4970414;28;20031;-67
2022/11/07 10:14:07;;;;;;;6.78;1.92;;;13.50;99.90;;;;;;4968334;28;20545;-66
2022/11/07 10:16:32;;;;;;;14.25;1.52;;;13.50;99.90;;;;;;4978826;28;20046;-66
2022/11/07 10:19:25;;;;;;;3.65;1.50;;;13.60;99.90;;;;;;4976870;28;20386;-66
2022/11/07 10:22:27;;;;;;;4.30;1.30;;;13.60;99.90;;;;;;4963825;28;20047;-66
2022/11/07 10:25:20;;;;;;;4.82;1.15;;;13.50;99.90;;;;;;4976528;28;20034;-67
2022/11/07 10:28:06;;;;;;;5.07;1.10;;;13.50;99.90;;;;;;4976879;28;20053;-67
2022/11/07 10:30:33;;;;;;;5.85;1.52;;;13.60;99.90;;;;;;4977755;28;20027;-66
2022/11/07 10:33:12;;;;;;;5.88;1.58;;;13.60;99.90;;;;;;4973653;28;20034;-67
2022/11/07 10:35:46;;;;;;;5.20;1.30;;;13.60;99.90;;;;;;4957377;29;20050;-67
2022/11/07 10:38:25;;;;;;;4.65;1.13;;;13.60;99.90;;;;;;4958535;28;20043;-66
2022/11/07 10:40:51;;;;;;;5.07;1.40;;;13.60;99.90;;;;;;4967925;28;20031;-66
2022/11/07 10:43:27;;;;;;;5.60;1.30;;;13.60;99.90;;;;;;4977658;28;20038;-66
2022/11/07 10:45:55;;;;;;;4.22;1.88;;;13.70;99.90;;;;;;4976665;28;20022;-67
2022/11/07 10:48:22;;;;;;;13.15;2.13;;;13.70;99.90;;;;;;4972448;28;20059;-67
2022/11/07 10:54:29;;;;;;;5.13;1.30;;;13.80;99.90;;;;;;4974929;28;20026;-66
2022/11/07 10:57:02;;;;;;;8.57;1.75;;;13.80;99.90;;;;;;4976693;28;20390;-67
2022/11/07 10:59:30;;;;;;;4.22;1.20;;;13.80;99.90;;;;;;4960684;28;20030;-67
2022/11/07 11:01:57;;;;;;;4.03;1.17;;;13.80;99.90;;;;;;4967581;28;20038;-67
2022/11/07 11:04:29;;;;;;;4.25;1.10;;;13.80;99.90;;;;;;4975757;28;20080;-66
2022/11/07 11:07:08;;;;;;;;;;;13.90;99.90;;;;;;4976346;28;20022;-67
2022/11/07 11:09:34;;;;;;;8.05;2.10;;;14.00;99.90;;;;;;4956432;28;19906;-67
2022/11/07 11:12:12;;;;;;;6.15;1.63;;;14.10;99.90;;;;;;4955739;28;20035;-67
2022/11/07 11:14:38;;;;;;;7.90;1.23;;;14.20;99.90;;;;;;4957725;29;20062;-66
2022/11/07 11:17:04;;;;;;;6.05;1.30;;;14.10;99.90;;;;;;4956472;29;20051;-67
2022/11/07 11:19:56;;;;;;;5.47;1.25;;;14.10;99.90;;;;;;4964969;28;20042;-67
2022/11/07 11:22:23;;;;;;;;;;;14.20;99.90;;;;;;4972582;28;20043;-67
2022/11/07 11:25:17;;;;;;;3.72;1.60;;;14.20;99.90;;;;;;4975710;28;19960;-67
2022/11/07 11:27:46;;;;;;;3.80;1.02;;;14.10;99.90;;;;;;4975866;28;20023;-67
2022/11/07 11:30:18;;;;;;;10.48;1.85;;;14.10;99.90;;;;;;4967117;28;20479;-67
2022/11/07 11:33:00;;;;;;;9.57;1.30;;;14.00;99.90;;;;;;4959960;28;20039;-67
2022/11/07 11:35:45;;;;;;;3.42;1.02;;;14.10;99.90;;;;;;4976583;28;20034;-67
2022/11/07 11:38:27;;;;;;;6.53;1.35;;;14.10;99.90;;;;;;4975576;28;20031;-67
2022/11/07 11:40:59;;;;;;;6.20;1.40;;;14.00;99.90;;;;;;4976453;28;20030;-67
2022/11/07 11:43:31;;;;;;;8.20;1.55;;;14.00;99.90;;;;;;4975288;28;20026;-67
2022/11/07 11:46:05;;;;;;;4.35;1.08;;;14.00;99.90;;;;;;4975129;28;20375;-67
2022/11/07 11:49:23;;;;;;;3.75;1.55;;;14.00;99.90;;;;;;4976199;28;20041;-67
2022/11/07 11:51:59;;;;;;;7.03;1.30;;;14.10;99.90;;;;;;4962997;28;20030;-67
2022/11/07 11:54:24;;;;;;;6.88;1.80;;;14.20;99.90;;;;;;4974524;28;20018;-67
2022/11/07 11:57:15;;;;;;;3.03;1.00;;;14.30;99.90;;;;;;4962156;28;20098;-67
2022/11/07 11:59:44;;;;;;;9.75;1.63;;;14.40;99.90;;;;;;4975779;28;20031;-67
2022/11/07 12:02:32;;;;;;;5.30;1.20;;;14.50;99.90;;;;;;4975008;28;20474;-67
2022/11/07 12:05:17;;;;;;;11.00;1.70;;;14.60;99.90;;;;;;4974052;28;20122;-67
2022/11/07 12:08:01;;;;;;;3.53;1.08;;;14.60;99.90;;;;;;4955272;29;20031;-67
2022/11/07 12:10:38;;;;;;;7.82;1.50;;;14.60;99.90;;;;;;4955597;28;20087;-67
2022/11/07 12:13:20;;;;;;;5.88;1.08;;;14.70;99.90;;;;;;4965207;28;20023;-67
2022/11/07 12:19:43;;;;;;;2.30;0.93;;;14.80;99.90;;;;;;4972142;28;19918;-67
2022/11/07 12:22:39;;;;;;;6.18;1.48;;;14.80;99.90;;;;;;4958868;28;20085;-67
2022/11/07 12:25:19;;;;;;;6.30;1.50;;;14.80;99.90;;;;;;4963596;28;20046;-67
2022/11/07 12:28:21;;;;;;;5.72;0.80;;;15.10;99.90;;;;;;4965057;28;20038;-68
2022/11/07 12:31:04;;;;;;;5.07;1.05;;;15.40;99.90;;;;;;4974037;28;20474;-67
2022/11/07 12:33:36;;;;;;;3.58;1.27;;;15.40;99.90;;;;;;4973813;28;20031;-67
2022/11/07 12:36:24;;;;;;;2.42;0.90;;;15.50;99.90;;;;;;4974467;28;20105;-67
2022/11/07 12:39:19;;;;;;;5.38;1.30;;;15.60;99.90;;;;;;4959133;28;20023;-67
2022/11/07 12:41:57;;;;;;;3.75;1.35;;;15.50;99.90;;;;;;4964922;28;20061;-67
2022/11/07 12:44:45;;;;;;;5.55;1.10;;;15.50;99.90;;;;;;4969977;28;20406;-67
2022/11/07 12:47:33;;;;;;;4.30;1.20;;;15.40;99.90;;;;;;4975628;28;20027;-67
2022/11/07 12:50:11;;;;;;;5.72;1.20;;;15.30;99.90;;;;;;4955486;28;20030;-67
2022/11/07 12:53:12;;;;;;;2.80;0.93;;;15.10;99.90;;;;;;4967596;28;20027;-67
2022/11/07 12:55:46;;;;;;;5.35;1.23;;;15.00;99.90;;;;;;4970993;28;20035;-67
2022/11/07 12:58:20;;;;;;;3.13;1.25;;;14.90;99.90;;;;;;4972735;28;20046;-68
2022/11/07 13:00:47;;;;;;;14.30;1.75;;;14.90;99.90;;;;;;4968981;28;20100;-68
2022/11/07 13:03:37;;;;;;;7.75;1.60;;;14.90;99.90;;;;;;4964655;28;20057;-68
2022/11/07 13:06:19;;;;;;;4.45;1.00;;;15.00;99.90;;;;;;4969729;28;20031;-67
2022/11/07 13:09:03;;;;;;;4.38;1.10;;;15.10;99.90;;;;;;4965445;28;20165;-67
2022/11/07 13:11:47;;;;;;;4.28;1.10;;;15.10;99.90;;;;;;4972024;28;20035;-67
2022/11/07 13:14:23;;;;;;;4.88;1.17;;;15.20;99.90;;;;;;4969917;28;20027;-68
2022/11/07 13:17:11;;;;;;;8.07;1.55;;;15.30;99.90;;;;;;4967237;28;20054;-67
2022/11/07 13:19:40;;;;;;;5.15;1.42;;;15.30;99.90;;;;;;4969155;28;20078;-67
2022/11/07 13:22:19;;;;;;;3.33;0.90;;;15.30;99.90;;;;;;4959058;28;20121;-67